page 8055 of 1011607 registered users

eBook PostsUsers

  1. 0hillenergy85 registered @ 2013-06-25 15:04:43, last login @ 2013-06-25 15:04:43
  2. 0traycake7 registered @ 2013-06-25 15:06:11, last login @ 2013-06-25 15:53:28
  3. 0vase5crate registered @ 2013-06-25 15:07:18, last login @ 2013-06-25 15:07:18
  4. 0course83fly registered @ 2013-06-25 15:10:14, last login @ 2013-06-25 15:10:14
  5. 0holeglue7 registered @ 2013-06-25 15:10:23, last login @ 2013-06-25 15:41:39
  6. 0doctornut9 registered @ 2013-06-25 15:10:57, last login @ 2013-06-25 15:10:57
  7. 0porter6laugh registered @ 2013-06-25 15:13:12, last login @ 2013-06-25 15:13:12
  8. 0grape67tea registered @ 2013-06-25 15:13:27, last login @ 2013-06-25 15:13:27
  9. 0deerlace8 registered @ 2013-06-25 15:14:45, last login @ 2013-06-25 15:14:45
  10. 0decade7jumbo registered @ 2013-06-25 15:15:17, last login @ 2013-06-25 15:15:17
  11. 0nickelramie23 registered @ 2013-06-25 15:15:20, last login @ 2013-06-25 15:50:25
  12. 0grapepolo3 registered @ 2013-06-25 15:16:28, last login @ 2013-06-25 15:16:28
  13. 0egggreen6 registered @ 2013-06-25 15:16:53, last login @ 2013-06-25 15:16:53
  14. 0gandercard83 registered @ 2013-06-25 15:18:13, last login @ 2013-06-25 15:18:13
  15. 0hoodsleet3 registered @ 2013-06-25 15:18:29, last login @ 2013-06-25 15:18:29
  16. 0bill54north registered @ 2013-06-25 15:18:30, last login @ 2013-06-25 15:18:30
  17. 0crycat80 registered @ 2013-06-25 15:19:41, last login @ 2013-06-25 15:19:41
  18. 0bloodtip39 registered @ 2013-06-25 15:19:43, last login @ 2013-06-25 15:19:43
  19. 0turnipsign16 registered @ 2013-06-25 15:21:46, last login @ 2013-06-25 15:21:46
  20. 0fight8feet registered @ 2013-06-25 15:21:48, last login @ 2013-06-25 15:21:48
  21. 0bar60dew registered @ 2013-06-25 15:22:52, last login @ 2013-06-25 15:22:52
  22. 0nose91chief registered @ 2013-06-25 15:22:53, last login @ 2013-06-25 15:22:53
  23. 0fog60icicle registered @ 2013-06-25 15:23:02, last login @ 2013-06-25 15:23:02
  24. 0loan78judo registered @ 2013-06-25 15:23:06, last login @ 2013-06-25 15:23:06
  25. 0eyebox19 registered @ 2013-06-25 15:23:14, last login @ 2013-06-25 15:23:14
  26. 0eggitaly74 registered @ 2013-06-25 15:23:28, last login @ 2013-06-25 15:23:28
  27. 0nerveknee11 registered @ 2013-06-25 15:25:12, last login @ 2013-06-25 15:25:12
  28. 0betty9sarah registered @ 2013-06-25 15:26:04, last login @ 2013-06-25 15:55:02
  29. 0violabirth7 registered @ 2013-06-25 15:26:26, last login @ 2013-06-25 15:53:44
  30. 0raven24banker registered @ 2013-06-25 15:26:33, last login @ 2013-06-25 15:26:33
  31. 0pikestage4 registered @ 2013-06-25 15:27:57, last login @ 2013-06-25 15:27:57
  32. 0police15ghana registered @ 2013-06-25 15:29:05, last login @ 2013-06-25 15:29:05
  33. 0bridge6air registered @ 2013-06-25 15:30:20, last login @ 2013-06-25 15:30:20
  34. 0queenlyre0 registered @ 2013-06-25 15:31:04, last login @ 2013-06-25 15:31:04
  35. 0rubber3beat registered @ 2013-06-25 15:31:21, last login @ 2013-06-25 15:31:21
  36. 0zonecourt46 registered @ 2013-06-25 15:32:24, last login @ 2013-06-25 15:32:24
  37. 0daisy9cough registered @ 2013-06-25 15:32:27, last login @ 2013-06-25 15:32:27
  38. 0kanjanava registered @ 2013-06-25 15:33:40, last login @ 2013-06-25 15:33:40
  39. 0liermint84 registered @ 2013-06-25 15:33:50, last login @ 2013-06-25 15:57:31
  40. 0melody3guilty registered @ 2013-06-25 15:34:05, last login @ 2013-06-25 15:34:05
  41. 0marysled94 registered @ 2013-06-25 15:36:33, last login @ 2013-06-25 15:36:33
  42. 0sort01office registered @ 2013-06-25 15:38:39, last login @ 2013-06-25 15:38:39
  43. 0scam558 registered @ 2013-06-25 15:38:53, last login @ 2013-06-25 15:38:53
  44. 0mancolumn8 registered @ 2013-06-25 15:39:45, last login @ 2013-06-25 15:39:45
  45. 0maraca7french registered @ 2013-06-25 15:39:47, last login @ 2013-06-25 15:39:47
  46. 0way3beauty registered @ 2013-06-25 15:40:17, last login @ 2013-06-25 15:40:17
  47. 0sponge6noise registered @ 2013-06-25 15:42:59, last login @ 2013-06-25 15:42:59
  48. 0dugout4start registered @ 2013-06-25 15:43:23, last login @ 2013-06-25 15:43:23
  49. 0heart81radish registered @ 2013-06-25 15:43:43, last login @ 2013-06-25 15:43:43
  50. 0finger4hemp registered @ 2013-06-25 15:46:35, last login @ 2013-06-25 15:46:35
  51. 0Shefalisingh registered @ 2013-06-25 15:46:46, last login @ 2013-06-25 15:46:46
  52. 0stoma1215 registered @ 2013-06-25 15:46:46, last login @ 2013-06-25 15:46:46
  53. 0DoofsmorNum registered @ 2013-06-25 15:53:15, last login @ 2013-06-25 15:53:15
  54. 0eggscent5 registered @ 2013-06-25 15:54:10, last login @ 2013-06-25 15:54:10
  55. 0tempo1neon registered @ 2013-06-25 15:54:28, last login @ 2013-06-25 15:54:28
  56. 0winter3fall registered @ 2013-06-25 15:54:52, last login @ 2013-06-25 15:54:52
  57. 0heliumfir1 registered @ 2013-06-25 15:55:23, last login @ 2013-06-25 15:55:23
  58. 0brand93level registered @ 2013-06-25 15:55:33, last login @ 2013-06-25 15:55:33
  59. 0time77twine registered @ 2013-06-25 15:55:51, last login @ 2013-06-25 15:55:51
  60. 0crayon58dust registered @ 2013-06-25 15:56:50, last login @ 2013-06-25 15:56:50
  61. 0commaradish5 registered @ 2013-06-25 15:56:59, last login @ 2013-06-25 15:56:59
  62. 0news0punch registered @ 2013-06-25 15:57:14, last login @ 2013-06-25 15:57:14
  63. 0period29root registered @ 2013-06-25 15:57:27, last login @ 2013-06-25 15:57:27
  64. 0iraqfold07 registered @ 2013-06-25 15:57:38, last login @ 2013-06-25 15:57:38
  65. 0slope03cattle registered @ 2013-06-25 15:58:19, last login @ 2013-06-25 15:58:19
  66. 0dime24kettle registered @ 2013-06-25 15:58:52, last login @ 2013-06-25 15:58:52
  67. 0noselake67 registered @ 2013-06-25 15:59:33, last login @ 2013-06-25 15:59:33
  68. 0adamokasa registered @ 2013-06-25 16:00:02, last login @ 2013-06-25 16:00:02
  69. 0danger5jason registered @ 2013-06-25 16:00:08, last login @ 2013-06-25 16:00:08
  70. 0story2space registered @ 2013-06-25 16:00:34, last login @ 2013-06-25 16:00:34
  71. 0russia47pint registered @ 2013-06-25 16:00:43, last login @ 2013-06-25 16:00:43
  72. 0carrot4thread registered @ 2013-06-25 16:00:48, last login @ 2013-06-25 16:00:48
  73. 0bombmom01 registered @ 2013-06-25 16:00:55, last login @ 2013-06-25 16:00:55
  74. 0bell7bed registered @ 2013-06-25 16:01:08, last login @ 2013-06-25 16:01:08
  75. 0riddlefarmer56 registered @ 2013-06-25 16:01:10, last login @ 2013-06-25 16:01:10
  76. 0formangle89 registered @ 2013-06-25 16:01:21, last login @ 2013-06-25 16:01:21
  77. 0restplot89 registered @ 2013-06-25 16:02:17, last login @ 2013-06-25 16:02:17
  78. 0sheepeditor7 registered @ 2013-06-25 16:02:25, last login @ 2013-06-25 16:02:25
  79. 0ring8helen registered @ 2013-06-25 16:03:17, last login @ 2013-06-25 16:03:17
  80. 0sudandegree56 registered @ 2013-06-25 16:03:37, last login @ 2013-06-25 16:03:37
  81. 0adult6plate registered @ 2013-06-25 16:03:48, last login @ 2013-06-25 16:03:48
  82. 0plotclover4 registered @ 2013-06-25 16:03:49, last login @ 2013-06-25 16:03:49
  83. 0heavendegree77 registered @ 2013-06-25 16:04:23, last login @ 2013-06-25 16:04:23
  84. 0bankjeans1 registered @ 2013-06-25 16:04:41, last login @ 2013-06-25 16:04:41
  85. 0zinc45dryer registered @ 2013-06-25 16:04:53, last login @ 2013-06-25 16:04:53
  86. 0candlehill40 registered @ 2013-06-25 16:04:59, last login @ 2013-06-25 16:04:59
  87. 0bowcow89 registered @ 2013-06-25 16:05:08, last login @ 2013-06-25 16:05:08
  88. 0gramtv93 registered @ 2013-06-25 16:05:17, last login @ 2013-06-25 16:05:17
  89. 0alto5cafe registered @ 2013-06-25 16:05:28, last login @ 2013-06-25 16:05:28
  90. 0helium9person registered @ 2013-06-25 16:05:44, last login @ 2013-06-25 16:05:44
  91. 0pimple7rocket registered @ 2013-06-25 16:07:09, last login @ 2013-06-25 16:07:09
  92. 0gramtime11 registered @ 2013-06-25 16:07:16, last login @ 2013-06-25 16:07:16
  93. 0idaa61 registered @ 2013-06-25 16:07:48, last login @ 2013-06-25 16:07:48
  94. 0clauscd6 registered @ 2013-06-25 16:08:07, last login @ 2013-06-25 16:08:07
  95. 0lambfreeze4 registered @ 2013-06-25 16:08:30, last login @ 2013-06-25 16:08:30
  96. 0coldthread97 registered @ 2013-06-25 16:09:18, last login @ 2013-06-25 16:09:18
  97. 0familydriver31 registered @ 2013-06-25 16:09:21, last login @ 2013-06-25 16:50:20
  98. 0stew33april registered @ 2013-06-25 16:09:27, last login @ 2013-06-25 16:09:27
  99. 0school70pair registered @ 2013-06-25 16:11:42, last login @ 2013-06-25 16:11:42
  100. 0cellarbeer26 registered @ 2013-06-25 16:11:53, last login @ 2013-06-25 16:11:53
  101. 0desk0noise registered @ 2013-06-25 16:12:58, last login @ 2013-06-25 16:12:58

More...

[8065] [8064] [8063] [8062] [8061] [8060] [8059] [8058] [8057] [8056] [8055] [8054] [8053] [8052] [8051] [8050] [8049] [8048] [8047] [8046] ...[1]
Back to Top